Latest Weather Observations for Cape Bruny AWS

IDT60901

Issued at 11:21 am EST Friday 4 September 2015 (issued every 10 minutes, with the page automatically refreshed every 10 minutes)

About weather observations | Map of Hobart area stations | Latest observations for Hobart area | Other Formats
Station Details ID: 094198 Name: CAPE BRUNY (CAPE BRUNY) Lat: -43.49 Lon: 147.14 Height: 59.7 m
Data from the previous 72 hours. | See also: Recent months at Cape Bruny AWS
Date/Time
EST
Tmp

°C
App
Tmp
°C
Dew
Point
°C
Rel
Hum
%
Delta-T

°C
Wind Press
QNH
hPa
Press
MSL
hPa
Rain
since
9 am
mm
Dir
 
Spd
km/h
Gust
km/h
Spd
kts
Gust
kts
04/11:00am 11.7 1.7 4.4 61 3.3 WNW 46 63 25 34 1015.5 1015.6 0.0
04/10:36am 11.2 1.2 4.4 63 3.1 WNW 46 65 25 35 1015.7 1015.8 0.0
04/10:30am 11.2 1.3 4.7 64 3.0 WNW 46 59 25 32 1015.9 1016.0 0.0
04/10:07am 11.2 2.6 4.4 63 3.1 WNW 39 57 21 31 1016.0 1016.1 0.0
04/10:00am 11.1 1.7 4.3 63 3.1 WNW 43 56 23 30 1015.9 1016.0 0.0
04/09:45am 10.9 0.6 4.6 65 2.8 WNW 48 67 26 36 1015.9 1016.0 0.0
04/09:30am 10.8 -0.8 4.0 63 3.0 WNW 54 67 29 36 1015.8 1015.9 0.0
04/09:00am 10.4 -0.9 3.4 62 3.1 WNW 52 67 28 36 1016.0 1016.1 0.2
04/08:30am 9.8 -1.9 3.1 63 2.9 WNW 54 69 29 37 1016.3 1016.4 0.2
04/08:00am 9.5 0.3 3.7 67 2.5 WNW 41 59 22 32 1016.4 1016.5 0.2
04/07:40am 9.2 0.3 2.8 64 2.7 WNW 39 57 21 31 1016.5 1016.6 0.2
04/07:30am 9.2 -0.6 2.5 63 2.8 WNW 43 54 23 29 1016.5 1016.6 0.2
04/07:11am 9.0 -0.7 3.0 66 2.6 WNW 43 61 23 33 1016.5 1016.6 0.2
04/07:00am 8.8 -1.4 3.0 67 2.5 WNW 46 59 25 32 1016.3 1016.4 0.2
04/06:30am 8.5 -1.3 2.5 66 2.5 WNW 43 63 23 34 1016.2 1016.3 0.2
04/06:08am 8.3 -0.4 2.1 65 2.6 WNW 37 61 20 33 1016.2 1016.3 0.2
04/06:00am 8.3 0.0 2.3 66 2.5 WNW 35 52 19 28 1016.3 1016.4 0.2
04/05:36am 8.0 0.2 2.0 66 2.5 NW 32 50 17 27 1016.4 1016.5 0.2
04/05:30am 7.5 0.1 1.6 66 2.4 NW 30 44 16 24 1016.5 1016.6 0.2
04/05:00am 7.2 0.9 1.5 67 2.3 NW 24 39 13 21 1016.9 1017.0 0.2
04/04:49am 7.2 0.1 1.1 65 2.5 WNW 28 46 15 25 1016.9 1017.0 0.2
04/04:30am 7.2 -0.4 0.6 63 2.6 NW 30 39 16 21 1016.9 1017.0 0.2
04/04:00am 6.3 0.5 -0.2 63 2.5 NW 20 35 11 19 1017.1 1017.2 0.2
04/03:30am 6.9 -1.2 -0.1 61 2.7 NW 32 41 17 22 1017.4 1017.5 0.2
04/03:00am 6.6 -0.7 0.1 63 2.5 NW 28 35 15 19 1017.7 1017.8 0.2
04/02:30am 6.8 -0.1 0.0 62 2.6 NW 26 35 14 19 1018.2 1018.3 0.2
04/02:00am 6.5 -0.4 0.2 64 2.4 NW 26 39 14 21 1018.8 1018.9 0.2
04/01:30am 6.5 -1.2 0.2 64 2.5 NW 30 39 16 21 1019.3 1019.3 0.2
04/01:00am 6.5 -0.8 0.2 64 2.4 WNW 28 39 15 21 1019.4 1019.4 0.2
04/12:30am 6.5 -0.4 0.4 65 2.4 NW 26 33 14 18 1019.5 1019.5 0.2
04/12:00am 6.5 -1.5 0.6 66 2.3 NW 32 39 17 21 1019.6 1019.6 0.2
 
Date/Time
EST
Tmp

°C
App
Tmp
°C
Dew
Point
°C
Rel
Hum
%
Delta-T

°C
Wind Press
QNH
hPa
Press
MSL
hPa
Rain
since
9 am
mm
Dir
 
Spd
km/h
Gust
km/h
Spd
kts
Gust
kts
03/11:30pm 6.7 -0.5 0.6 65 2.4 NW 28 35 15 19 1019.7 1019.7 0.2
03/11:00pm 6.6 -0.7 0.3 64 2.5 NW 28 35 15 19 1019.8 1019.8 0.2
03/10:30pm 6.9 0.1 1.0 66 2.4 NW 26 32 14 17 1019.9 1019.9 0.2
03/10:00pm 6.7 1.1 1.2 68 2.2 WNW 20 26 11 14 1019.9 1019.9 0.2
03/09:30pm 7.1 1.6 1.6 68 2.2 WNW 20 26 11 14 1019.8 1019.8 0.2
03/09:00pm 6.9 -0.2 1.6 69 2.1 W 28 33 15 18 1019.6 1019.6 0.2
03/08:30pm 6.9 0.2 1.6 69 2.1 W 26 30 14 16 1019.5 1019.5 0.2
03/08:00pm 7.1 0.1 1.8 69 2.2 WSW 28 32 15 17 1019.4 1019.4 0.2
03/07:30pm 7.3 0.0 0.3 61 2.8 W 28 37 15 20 1019.3 1019.3 0.2
03/07:00pm 7.7 0.5 0.4 60 2.9 W 28 35 15 19 1019.3 1019.3 0.2
03/06:30pm 7.7 -0.4 0.0 58 3.0 W 32 43 17 23 1019.0 1019.1 0.2
03/06:00pm 7.6 -0.1 0.1 59 2.9 WSW 30 41 16 22 1018.5 1018.6 0.2
03/05:30pm 7.4 -0.9 -0.5 57 3.1 WSW 33 43 18 23 1018.2 1018.3 0.2
03/05:00pm 7.9 -0.2 -0.1 57 3.1 WSW 32 41 17 22 1017.6 1017.7 0.2
03/04:30pm 8.0 0.0 0.3 58 3.1 WSW 32 43 17 23 1017.2 1017.3 0.2
03/04:00pm 8.1 1.2 -0.1 56 3.2 WSW 26 35 14 19 1017.2 1017.3 0.2
03/03:30pm 8.9 0.9 0.1 54 3.5 WSW 32 43 17 23 1017.0 1017.1 0.2
03/03:00pm 8.3 0.3 0.5 58 3.1 WSW 32 54 17 29 1016.8 1016.9 0.2
03/02:53pm 8.3 0.4 1.0 60 3.0 WSW 32 54 17 29 1016.7 1016.8 0.2
03/02:30pm 8.4 0.9 1.3 61 2.9 WSW 30 39 16 21 1016.5 1016.6 0.2
03/02:00pm 8.7 1.1 0.4 56 3.3 WSW 30 41 16 22 1016.2 1016.3 0.2
03/01:30pm 9.7 1.0 -0.2 50 4.0 WSW 35 50 19 27 1016.0 1016.1 0.2
03/01:00pm 9.8 1.5 -0.4 49 4.1 WSW 33 44 18 24 1016.1 1016.2 0.2
03/12:30pm 9.3 1.4 1.2 57 3.3 SW 32 43 17 23 1016.1 1016.2 0.2
03/12:00pm 10.3 3.0 2.7 59 3.3 WSW 30 43 16 23 1016.0 1016.1 0.2
03/11:30am 9.5 1.5 1.4 57 3.4 SW 33 44 18 24 1015.9 1016.0 0.2
03/11:00am 9.1 2.8 3.9 70 2.3 SW 26 43 14 23 1015.5 1015.6 0.2
03/10:30am 7.4 -0.1 3.6 77 1.6 SW 32 44 17 24 1015.1 1015.2 0.2
03/10:00am 6.9 -0.3 3.0 76 1.6 SW 30 41 16 22 1014.9 1015.0 0.2
03/09:30am 8.9 0.6 2.0 62 2.9 SW 35 54 19 29 1014.5 1014.6 0.0
03/09:07am 8.5 1.1 1.9 63 2.7 SW 30 48 16 26 1014.3 1014.4 0.0
03/09:00am 8.5 0.9 2.7 67 2.5 SW 32 46 17 25 1014.2 1014.3 4.0
03/08:30am 8.0 -0.7 1.8 65 2.6 SW 37 50 20 27 1013.7 1013.8 4.0
03/08:03am 6.9 -0.6 3.2 77 1.6 SW 32 50 17 27 1013.6 1013.7 3.8
03/08:00am 7.3 -1.2 3.2 75 1.7 SW 37 50 20 27 1013.6 1013.7 3.8
03/07:30am 8.1 0.3 2.8 69 2.2 SW 33 46 18 25 1012.6 1012.7 3.8
03/07:00am 7.8 -0.4 2.5 69 2.2 SW 35 44 19 24 1012.1 1012.2 3.8
03/06:30am 7.7 -0.5 2.8 71 2.1 SW 35 57 19 31 1011.5 1011.6 3.8
03/06:22am 7.9 1.2 3.4 73 1.9 SW 28 50 15 27 1011.5 1011.6 3.6
03/06:00am 7.6 2.2 4.6 81 1.3 SW 22 37 12 20 1011.2 1011.3 3.6
03/05:52am 7.8 1.3 4.7 81 1.4 SW 28 46 15 25 1011.0 1011.1 3.6
03/05:30am 8.1 0.9 4.9 80 1.4 SW 32 44 17 24 1010.5 1010.6 3.6
03/05:00am 8.0 0.9 5.5 84 1.1 SW 32 52 17 28 1010.2 1010.3 3.6
03/04:58am 8.0 1.3 5.6 85 1.1 SW 30 52 16 28 1010.2 1010.3 3.6
03/04:30am 7.7 1.9 6.3 91 0.6 SW 26 35 14 19 1009.8 1009.8 3.6
03/04:00am 7.8 1.2 6.1 89 0.8 WSW 30 41 16 22 1009.2 1009.2 2.8
03/03:30am 7.7 1.0 5.8 88 0.9 W 30 39 16 21 1009.0 1009.0 2.8
03/03:00am 7.3 2.1 5.4 88 0.8 W 22 28 12 15 1009.0 1009.0 2.8
03/02:30am 7.4 1.9 5.7 89 0.8 W 24 33 13 18 1009.3 1009.3 2.8
03/02:00am 7.1 -0.2 5.6 90 0.7 WSW 33 44 18 24 1009.5 1009.5 2.8
03/01:30am 7.5 1.3 6.1 91 0.6 SW 28 43 15 23 1009.5 1009.5 2.6
03/01:00am 8.1 2.1 6.9 92 0.6 WSW 28 37 15 20 1009.2 1009.2 2.4
03/12:30am 8.0 2.7 6.8 92 0.6 WSW 24 35 13 19 1009.2 1009.2 2.2
03/12:00am 8.3 4.7 6.9 91 0.7 WSW 15 22 8 12 1008.9 1008.9 1.6
 
Date/Time
EST
Tmp

°C
App
Tmp
°C
Dew
Point
°C
Rel
Hum
%
Delta-T

°C
Wind Press
QNH
hPa
Press
MSL
hPa
Rain
since
9 am
mm
Dir
 
Spd
km/h
Gust
km/h
Spd
kts
Gust
kts
02/11:30pm 8.4 5.5 6.7 89 0.8 W 11 13 6 7 1008.6 1008.6 0.8
02/11:00pm 8.2 5.3 6.5 89 0.8 N 11 15 6 8 1008.4 1008.4 0.6
02/10:30pm 8.1 5.6 6.4 89 0.8 NNE 9 13 5 7 1008.5 1008.5 0.4
02/10:00pm 8.1 6.1 6.2 88 0.9 NE 6 9 3 5 1008.4 1008.4 0.4
02/09:30pm 8.1 4.8 6.2 88 0.9 N 13 17 7 9 1008.3 1008.3 0.4
02/09:00pm 8.1 5.1 6.1 87 0.9 N 11 15 6 8 1008.5 1008.5 0.4
02/08:30pm 8.1 5.9 6.1 87 0.9 NNW 7 15 4 8 1008.6 1008.6 0.4
02/08:00pm 7.9 4.5 6.0 88 0.9 N 13 17 7 9 1008.3 1008.3 0.4
02/07:30pm 8.0 5.4 6.0 87 0.9 NNE 9 11 5 6 1008.3 1008.3 0.4
02/07:00pm 8.2 5.9 5.8 85 1.1 NE 7 9 4 5 1008.5 1008.5 0.4
02/06:30pm 8.4 6.1 5.9 84 1.1 ENE 7 9 4 5 1008.5 1008.5 0.2
02/06:00pm 8.8 6.2 5.9 82 1.3 E 9 11 5 6 1008.5 1008.5 0.2
02/05:30pm 8.9 6.6 5.6 80 1.5 SSE 7 9 4 5 1008.5 1008.5 0.2
02/05:00pm 9.0 6.9 5.7 80 1.5 S 6 9 3 5 1008.4 1008.4 0.2
02/04:30pm 8.9 6.2 5.5 79 1.5 S 9 13 5 7 1008.6 1008.6 0.2
02/04:00pm 9.1 6.4 5.7 79 1.6 S 9 13 5 7 1008.6 1008.6 0.2
02/03:30pm 9.7 7.1 6.1 78 1.7 SSE 9 11 5 6 1008.5 1008.5 0.2
02/03:00pm 9.7 6.9 5.3 74 2.0 SSE 9 13 5 7 1008.5 1008.5 0.2
02/02:30pm 9.9 6.8 5.5 74 2.0 SSE 11 13 6 7 1008.7 1008.7 0.2
02/02:00pm 10.2 7.1 5.4 72 2.2 SSE 11 13 6 7 1008.8 1008.8 0.2
02/01:30pm 10.4 6.7 4.3 66 2.7 S 13 17 7 9 1009.2 1009.2 0.2
02/01:00pm 12.0 8.6 5.9 66 2.9 S 13 15 7 8 1009.4 1009.4 0.2
02/12:30pm 11.3 8.6 5.8 69 2.6 S 9 13 5 7 1009.9 1009.9 0.0
02/12:00pm 11.8 9.6 6.1 68 2.7 W 7 11 4 6 1010.4 1010.5 0.0
02/11:30am 12.1 10.0 6.8 70 2.5 NW 7 19 4 10 1010.7 1010.8 0.0
02/11:00am 11.3 8.8 6.4 72 2.3 N 9 17 5 9 1011.1 1011.2 0.0
02/10:30am 9.8 6.0 6.0 77 1.8 N 15 20 8 11 1011.2 1011.3 0.0
02/10:00am 9.1 5.1 6.5 84 1.2 NNE 17 22 9 12 1011.2 1011.3 0.0
02/09:30am 8.4 4.4 6.5 88 0.9 NNE 17 20 9 11 1011.6 1011.7 0.0
02/09:00am 7.5 3.4 6.1 91 0.6 NNE 17 20 9 11 1011.8 1011.9 0.8
02/08:30am 6.9 2.7 5.7 92 0.5 NNE 17 22 9 12 1011.8 1011.9 0.8
02/08:00am 6.9 3.5 5.7 92 0.5 N 13 20 7 11 1012.1 1012.2 0.8
02/07:30am 6.5 1.7 5.5 93 0.4 N 20 26 11 14 1012.1 1012.2 0.8
02/07:00am 6.1 0.8 5.1 93 0.4 N 22 26 12 14 1011.9 1012.0 0.8
02/06:30am 6.1 1.4 5.1 93 0.4 N 19 26 10 14 1011.7 1011.8 0.8
02/06:00am 6.2 1.3 5.2 93 0.4 N 20 26 11 14 1011.8 1011.9 0.8
02/05:30am 6.2 1.8 5.0 92 0.5 N 17 24 9 13 1011.8 1011.9 0.8
02/05:00am 6.3 1.6 5.1 92 0.5 N 19 24 10 13 1011.8 1011.9 0.8
02/04:30am 6.5 1.6 5.1 91 0.6 N 20 24 11 13 1011.6 1011.7 0.8
02/04:00am 6.7 2.0 5.3 91 0.6 N 19 24 10 13 1011.5 1011.6 0.8
02/03:30am 7.0 2.8 5.5 90 0.7 N 17 20 9 11 1011.8 1011.9 0.8
02/03:00am 7.0 3.5 5.3 89 0.8 N 13 17 7 9 1012.4 1012.5 0.8
02/02:30am 6.9 3.7 5.1 88 0.8 N 11 15 6 8 1012.7 1012.8 0.8
02/02:00am 7.0 3.8 5.0 87 0.9 N 11 15 6 8 1013.4 1013.5 0.8
02/01:30am 6.8 3.5 4.8 87 0.9 NNE 11 11 6 6 1013.7 1013.8 0.8
02/01:00am 6.7 3.4 4.7 87 0.9 NNE 11 13 6 7 1013.6 1013.7 0.8
02/12:30am 6.9 3.7 5.1 88 0.8 NNE 11 13 6 7 1013.5 1013.6 0.8
02/12:00am 7.2 4.4 5.3 88 0.8 N 9 11 5 6 1013.8 1013.9 0.8
 
Date/Time
EST
Tmp

°C
App
Tmp
°C
Dew
Point
°C
Rel
Hum
%
Delta-T

°C
Wind Press
QNH
hPa
Press
MSL
hPa
Rain
since
9 am
mm
Dir
 
Spd
km/h
Gust
km/h
Spd
kts
Gust
kts
01/11:30pm 6.8 4.0 5.0 88 0.8 N 9 11 5 6 1013.8 1013.9 0.8
01/11:00pm 7.0 4.2 5.3 89 0.8 N 9 11 5 6 1013.8 1013.9 0.8
01/10:30pm 6.7 3.8 4.5 86 1.0 N 9 9 5 5 1013.8 1013.9 0.8
01/10:00pm 7.9 5.2 5.7 86 1.0 N 9 11 5 6 1013.9 1014.0 0.8
01/09:30pm 8.0 5.3 5.6 85 1.1 NNW 9 13 5 7 1013.9 1014.0 0.8
01/09:00pm 7.3 4.9 5.1 86 1.0 N 7 11 4 6 1013.8 1013.9 0.8
01/08:30pm 7.7 5.3 5.2 84 1.1 E 7 9 4 5 1013.6 1013.7 0.8
01/08:00pm 8.0 5.7 5.5 84 1.1 E 7 9 4 5 1013.7 1013.8 0.8
01/07:30pm 7.8 5.0 5.3 84 1.1 ESE 9 13 5 7 1013.8 1013.9 0.8
01/07:00pm 7.9 3.9 5.0 82 1.3 ESE 15 19 8 10 1013.6 1013.7 0.8
01/06:30pm 8.4 4.5 5.3 81 1.4 ESE 15 19 8 10 1013.5 1013.6 0.8
01/06:00pm 8.2 4.3 5.3 82 1.3 ESE 15 19 8 10 1013.5 1013.6 0.8
01/05:30pm 8.1 4.2 5.2 82 1.3 ESE 15 20 8 11 1013.4 1013.5 0.8
01/05:00pm 8.7 4.4 5.4 80 1.5 ESE 17 20 9 11 1013.2 1013.3 0.8
01/04:30pm 8.9 4.7 5.5 79 1.5 ESE 17 20 9 11 1013.4 1013.5 0.8
01/04:00pm 9.8 5.7 6.0 77 1.8 ESE 17 22 9 12 1013.4 1013.5 0.8
01/03:30pm 10.2 6.5 6.5 78 1.7 ESE 15 19 8 10 1013.7 1013.8 0.8
01/03:00pm 10.3 6.8 7.2 81 1.5 ESE 15 20 8 11 1014.0 1014.1 0.8
01/02:30pm 10.3 6.5 7.4 82 1.4 SE 17 22 9 12 1014.0 1014.1 0.8
01/02:00pm 10.4 7.7 7.3 81 1.5 ESE 11 13 6 7 1014.2 1014.3 0.8
01/01:30pm 10.3 7.6 7.4 82 1.4 ESE 11 15 6 8 1014.4 1014.5 0.8
01/01:00pm 10.7 8.6 8.3 85 1.2 SSE 9 15 5 8 1014.8 1014.9 0.8
01/12:30pm 9.6 8.8 8.0 90 0.8 S 2 7 1 4 1015.0 1015.1 0.8
01/12:00pm 9.4 7.6 8.0 91 0.7 ESE 7 11 4 6 1015.5 1015.6 0.8
01/11:30am 8.7 7.0 7.5 92 0.6 NNW 6 11 3 6 1015.8 1015.9 0.8

Latest Capital City Observations: Canberra | Sydney | Melbourne | Brisbane | Adelaide | Perth | Hobart | Darwin

Other Formats:

Comma delimited format used in spreadsheet applications
http://www.bom.gov.au/fwo/IDT60901/IDT60901.95967.axf

JavaScript Object Notation format (JSON) in row-major order
http://www.bom.gov.au/fwo/IDT60901/IDT60901.95967.json